AirNav   Pilot Hours Calculator
 
 1248 users online  

KNFJ Choctaw Naval Outlying Field
Milton, Florida, USA

GOING TO MILTON?


FAA INFORMATION EFFECTIVE 25 MARCH 2021

Location

FAA Identifier: NFJ
Lat/Long: 30-30-25.0000N 086-57-35.0000W
30-30.416667N 086-57.583333W
30.5069444,-86.9597222
(estimated)
Elevation: 102 ft. / 31 m (estimated)
Variation: 02W (2010)
Time zone: UTC -5 (UTC -6 during Standard Time)
Zip code: 32566

Airport Operations

Airport use: Private use. Permission required prior to landing
Control tower: yes
ARTCC: JACKSONVILLE CENTER
FSS: GAINESVILLE FLIGHT SERVICE STATION
Attendance: MON-FRI 1330-2330Z++, ALL HOLS CLSD, ALL SAT-SUN CLSD
Segmented circle: no
Lights: AVBL ONLY DURING HRS OF OPERATION.
Beacon: white-green (lighted land airport)
Operates sunset to sunrise.

Airport Communications

ATIS: 290.55
CHOCTAW TOWER: 121.4 259.25 [OPR 1330-2330Z++MON-FRI, CLSD SAT, SUN, AND HOL.]
PENSACOLA APPROACH: 119.0 ;340-159
PENSACOLA DEPARTURE: 119.0 ;340-159
CLASS C: 119.0 ;340-159
IC: 119.0 ;340-159
WX ASOS at NDZ (12 nm N): PHONE 850-623-7210
WX ASOS at PNS (12 nm W): PHONE 850-436-4799
WX ASOS at NSE (13 nm N): PHONE 850-623-7241

Nearby radio navigation aids

VOR radial/distance  VOR name  Freq  Var
NUNr083/(19.6)SAUFLEY VOR108.8001E
CEWr214/24.0CRESTVIEW VORTAC115.9003E

 
NDB name  Hdg/Dist  Freq  Var  ID
PICKENS072/12.132602WPKZ .--. -.- --..

Airport Services

Runway Information

Runway 18/36

Dimensions: 8000 x 150 ft. / 2438 x 46 m
Surface: asphalt
Weight bearing capacity: 
PCN 37 /F/B/W/T
Runway edge lights: high intensity
RUNWAY 18  RUNWAY 36
Traffic pattern: leftleft

Airport Ownership and Management from official FAA records

Ownership: U.S. Navy
Owner: US NAVY
COMTRAWING 6
NAS PENSACOLA, FL 32508
Manager: COMMANDING OFFICER
OPERATIONS DEPARTMENT, 7077 USS LEXINGTON COURT
MILTON, FL 32570-6155
Phone 850-623-7755
OR 850-623-7372

Additional Remarks

FOR FLIGHT ADVISORIES CTC WHITING FIELD NAS BASE OPS DSN 868-7597 C850-623-7597. CRASH CREWS AVBL DURING OPR HRS.
RY LIGHTING MUST BE REQUESTED DURG OPNL HRS.
RSTD: MIL USE ONLY.
MISC: CTL AGENCY NAS WHITING FLD, DSN 868-7475, C850-623-7475. TWR AND CRASH CREW PERS ON STN DUR OPR HR. UNLGTD COPTER PAD ON TWY S OF CTL TWR.
AGEAR: E28 (B) 1500 FT FR EITHER END OF RWY 18-36, APP END GEAR NORM DERIGGED, DEP END GEAR NORM RIGGED, BOTH GEARS RIGGED WITH PRIOR NOTIFICATION.
RSTD: TRAWING 5 AND 6 ACFT ONLY. PPR FOR ALL OTHER ACFT. CLSD FLD OPS PROH EXC LO APCH.
FOR CD CTC PENSACOLA APCH AT 850-266-6884 OR 850-266-6885.

Instrument Procedures

There are no published instrument procedures at KNFJ.

Some nearby airports with instrument procedures:

2R4 - Peter Prince Field Airport (8 nm N)
KNDZ - Whiting Field Naval Air Station South (12 nm N)
KPNS - Pensacola International Airport (12 nm W)
KNSE - Whiting Field Naval Air Station North (13 nm N)
KHRT - Hurlburt Field Airport (15 nm E)
 
Loc | Ops | Rwys | IFR | FBO | Links
Com | Nav | Svcs | Stats | Notes
Area around KNFJ (Choctaw Naval Outlying Field)
 
Road maps at: MapQuest Bing Google
 
Aerial photo
No photo
 
Sectional chart

 
Airport distance calculator
Flying to Choctaw Naval Outlying Field? Find the distance to fly.

From to KNFJ

Sunrise and sunset
Times for 17-Apr-2021
 Local
(UTC-5)
 Zulu
(UTC)
Morning civil twilight05:5510:55
Sunrise06:1911:19
Sunset19:1600:16
Evening civil twilight19:4000:40

Current date and time
Zulu (UTC)  17-Apr-2021 16:11:10
Local (UTC-5)  17-Apr-2021 11:11:10
 
METAR
KPNS 
12nm W 
171553Z 36006KT 7SM -RA BKN005 OVC060 18/16 A2991 RMK AO2 RAE1457B27 SLP129 P0000 T01780161
KNDZ 
12nm N 
171256Z AUTO 04007KT 10SM FEW003 BKN110 17/16 A2987 RMK AO2 RAE22 SLPNO T01670156 PNO $
KNSE 
13nm N 
170256Z 04003KT 10SM FEW050 SCT070 BKN100 OVC250 17/13 A2988 RMK SLP104 T01720133 53017
KHRT 
16nm E 
171556Z AUTO 04004KT 10SM BKN006 BKN050 OVC065 18/17 A2989 RMK AO2 RAB06E22DZB22E32 CIG 006V060 BKN006 V FEW SLP123 P0000 T01830170 $
TAF
KPNS 
12nm W 
171120Z 1712/1812 07005KT 6SM BR SCT004 OVC007 TEMPO 1712/1715 4SM SHRA OVC004 FM172100 03005KT 6SM SHRA VCTS OVC008CB TEMPO 1722/1802 4SM TSRA OVC005CB FM180200 34007KT 6SM SHRA OVC006
KNSE 
13nm N 
1707/1807 07005KT 9999 VCSH SCT008 BKN025 BKN120 OVC250 QNH2982INS FM170800 06006KT 8000 SHRA BR VCTS SCT008 BKN015CB BKN025 OVC100 QNH2978INS TEMPO 1708/1714 VRB25G40KT 1600 +TSRA BR BKN008CB OVC015 BECMG 1714/1716 10006KT 9000 SHRA VCTS FEW010 BKN030CB BKN080 OVC150 QNH2980INS TEMPO 1717/1723 VRB15G30KT 4800 TSRA BKN020CB BECMG 1723/1801 36006KT 8000 -SHRA BR FEW010 BKN030CB BKN080 OVC150 QNH2982INS AUTOMATED SENSOR METWATCH 1707 TIL 1912 T15/1712Z T22/1719Z FN00071
KHRT 
16nm E 
170900Z 1709/1808 VRB05KT 6000 SHRA OVC060 QNH2980INS BECMG 1713/1714 09010G15KT 9999 NSW SCT010 BKN030 OVC150 QNH2984INS BECMG 1717/1718 33010KT 8000 SHRA BKN020 QNH2983INS TEMPO 1720/1808 34012G25KT 4800 TSRA BKN005 OVC010CB TX20/1719Z TN15/1711Z LAST NO AMDS AFT 1709 NEXT 1721
NOTAMs
Click for the latest NOTAMs
NOTAMs are issued by the DoD/FAA and will open in a separate window not controlled by AirNav.

 

 
 

Would you like to see your business listed on this page?

 If your business provides an interesting product or service to pilots, flight crews, aircraft, or users of the Choctaw Naval Outlying Field, you should consider listing it here.  To start the listing process, click on the button below
 
Add a business
 

Other Pages about Choctaw Naval Outlying Field

Update a link
 
Copyright © AirNav, LLC. All rights reserved. Privacy Policy  Contact